Thursday, April 26, 2018, 5:47 AM EDT
Back to Local

KPSF, Pittsfield Municipal Airport

Location: Pittsfield, MA, United States Lat: 42.433
Local Time: 5:47 AM EDT ( 9:47 GMT) Lon: -73.283
Time Zone: US/Eastern Elev: 1194 ft

Show me the last for .
Show Decoded

2018-04-26 04:54 METAR KPSF 260854Z AUTO 25009KT 5SM -RA BR OVC008 11/09 A2959 RMK AO2 RAB18 CIG
                 006V011 SLP008 P0001 60002 T01060089 55000 =
2018-04-26 03:54 METAR KPSF 260754Z AUTO 30008KT 4SM BR BKN006 OVC009 12/11 A2957 RMK AO2
                 RAB32E52 SLP002 P0001 T01170106 =
2018-04-26 03:44 METAR KPSF 260744Z AUTO 30008KT 3SM -RA BR OVC006 12/11 A2957 RMK AO2 RAB32
                 P0000 T01170106 =
2018-04-26 03:26 METAR KPSF 260726Z AUTO 28003KT 1 1/4SM BR BKN006 OVC010 12/10 A2957 RMK AO2
                 T01170100 =
2018-04-26 03:08 METAR KPSF 260708Z AUTO 00000KT 3/4SM BR VV006 12/11 A2958 RMK AO2 T01170106 =
2018-04-26 02:54 METAR KPSF 260654Z AUTO 00000KT 1SM BR VV005 12/11 A2958 RMK AO2 SLP002
                 T01170111 =
2018-04-26 02:44 METAR KPSF 260644Z AUTO 00000KT 3/4SM BR VV005 12/11 A2958 RMK AO2 T01170106 =
2018-04-26 02:28 METAR KPSF 260628Z AUTO 00000KT 1 1/2SM BR SCT002 OVC005 12/11 A2958 RMK AO2
                 T01170106 =
2018-04-26 02:10 METAR KPSF 260610Z AUTO 00000KT 1 1/4SM BR OVC003 12/11 A2959 RMK AO2 T01170111
                 =
2018-04-26 01:54 METAR KPSF 260554Z AUTO 00000KT 3/4SM BR OVC003 12/11 A2959 RMK AO2 SLP007 60001
                 T01170106 10133 20117 56020 =
2018-04-26 01:44 METAR KPSF 260544Z AUTO 00000KT 3/4SM BR OVC003 12/11 A2959 RMK AO2 T01170106 =
2018-04-26 01:33 METAR KPSF 260533Z AUTO 00000KT 1SM BR OVC003 12/11 A2959 RMK AO2 T01170106 =
2018-04-26 01:16 METAR KPSF 260516Z AUTO 00000KT 2 1/2SM BR OVC003 12/11 A2960 RMK AO2 T01220106
                 =
2018-04-26 01:04 METAR KPSF 260504Z AUTO 00000KT 1 1/2SM BR OVC004 12/11 A2960 RMK AO2 T01170106
                 =
2018-04-26 00:54 METAR KPSF 260454Z AUTO 00000KT 2 1/2SM BR OVC004 12/11 A2960 RMK AO2 SLP013
                 T01170106 401500067 =
2018-04-26 00:43 METAR KPSF 260443Z AUTO 00000KT 4SM BR BKN002 OVC006 12/11 A2961 RMK AO2
                 T01220111 =
2018-04-26 00:21 METAR KPSF 260421Z AUTO 00000KT 4SM BR OVC006 12/11 A2963 RMK AO2 T01170106 =
2018-04-26 00:08 METAR KPSF 260408Z AUTO 00000KT 2SM BR OVC006 12/11 A2963 RMK AO2 T01220111 =
2018-04-25 23:54 METAR KPSF 260354Z AUTO 00000KT 5SM BR OVC007 12/11 A2963 RMK AO2 CIG 003V008
                 SLP023 T01220111 =
2018-04-25 22:54 METAR KPSF 260254Z AUTO 34003KT 6SM BR BKN007 OVC010 12/11 A2965 RMK AO2 CIG
                 005V009 SLP030 P0001 60001 T01220111 58008 =
2018-04-25 22:38 METAR KPSF 260238Z AUTO 00000KT 7SM BKN007 OVC011 13/11 A2966 RMK AO2 CIG
                 005V010 P0001 T01280111 =
2018-04-25 21:54 METAR KPSF 260154Z AUTO 00000KT 6SM BR OVC012 13/11 A2967 RMK AO2 RAB33E54
                 SLP039 P0000 T01280111 =
2018-04-25 21:06 METAR KPSF 260106Z AUTO 07003KT 10SM OVC013 13/11 A2968 RMK AO2 T01280111 =
2018-04-25 20:54 METAR KPSF 260054Z AUTO 07004KT 10SM OVC015 13/11 A2968 RMK AO2 RAB11E20 SLP041
                 P0000 T01280111 =
2018-04-25 19:54 METAR KPSF 252354Z AUTO 08004KT 10SM BKN011 OVC022 13/11 A2968 RMK AO2 RAB03E12
                 SLP041 P0000 60002 T01330111 10150 20133 56020 =
2018-04-25 18:54 METAR KPSF 252254Z AUTO 09006KT 10SM OVC013 13/11 A2969 RMK AO2 RAB32E49 SLP044
                 P0000 T01330111 =
2018-04-25 17:54 METAR KPSF 252154Z AUTO 07004KT 10SM OVC014 14/11 A2971 RMK AO2 RAE16 SLP052
                 P0001 T01390111 =
2018-04-25 16:54 METAR KPSF 252054Z AUTO VRB04KT 3SM -RA BR BKN014 BKN019 OVC025 14/12 A2974 RMK
                 AO2 RAE07B46 SLP061 P0000 60001 T01390117 56029 =
2018-04-25 16:47 METAR KPSF 252047Z AUTO 12007KT 5SM -RA BKN014 OVC025 14/11 A2974 RMK AO2
                 RAE07B46 P0000 T01440111 =
2018-04-25 15:54 METAR KPSF 251954Z AUTO 12007KT 6SM -RA BKN015 BKN027 OVC033 14/11 A2976 RMK AO2
                 RAB23 SLP069 P0001 T01390111 =
2018-04-25 14:54 METAR KPSF 251854Z AUTO 07005KT 10SM OVC015 14/11 A2979 RMK AO2 SLP078 T01440106
                 =
2018-04-25 14:06 METAR KPSF 251806Z AUTO 08003KT 10SM OVC015 14/11 A2982 RMK AO2 T01390106 =
2018-04-25 13:54 METAR KPSF 251754Z AUTO 06006KT 10SM OVC014 13/11 A2983 RMK AO2 SLP091 60004
                 T01330106 10133 20078 58033 =
2018-04-25 12:54 METAR KPSF 251654Z AUTO VRB03KT 8SM BKN012 OVC017 12/09 A2986 RMK AO2 SLP101
                 T01220094 =
2018-04-25 12:32 METAR KPSF 251632Z AUTO 05006KT 7SM OVC013 12/09 A2987 RMK AO2 T01220094 =
2018-04-25 12:17 METAR KPSF 251617Z AUTO 10003KT 10SM OVC015 12/09 A2988 RMK AO2 T01220094 =
2018-04-25 11:54 METAR KPSF 251554Z AUTO 11009KT 10SM OVC014 12/09 A2990 RMK AO2 SLP115 T01170089
                 =
2018-04-25 11:01 METAR KPSF 251501Z AUTO 08004KT 10SM FEW009 OVC014 11/08 A2993 RMK AO2 T01060083
                 =
2018-04-25 10:54 METAR KPSF 251454Z AUTO 08005KT 9SM OVC014 11/08 A2993 RMK AO2 SLP125 60004
                 T01060083 58026 =
2018-04-25 10:32 METAR KPSF 251432Z AUTO 08005KT 8SM OVC011 10/08 A2994 RMK AO2 CIG 007V014
                 T01000078 =
2018-04-25 09:54 METAR KPSF 251354Z AUTO VRB05KT 4SM BR BKN007 OVC013 09/08 A2996 RMK AO2 RAE47
                 CIG 004V009 SLP135 P0002 T00940078 =
2018-04-25 09:40 METAR KPSF 251340Z AUTO 07006KT 5SM -RA BR FEW004 BKN011 OVC016 09/07 A2996 RMK
                 AO2 CIG 007V014 P0002 T00890072 =
2018-04-25 09:13 METAR KPSF 251313Z AUTO 07005KT 3SM -RA BR BKN008 OVC014 08/07 A2998 RMK AO2 CIG
                 003V012 P0001 T00830072 =
2018-04-25 09:01 METAR KPSF 251301Z AUTO 05006KT 3SM -RA BR FEW006 BKN010 OVC015 08/07 A2998 RMK
                 AO2 CIG 008V012 P0001 T00830067 =
2018-04-25 08:54 METAR KPSF 251254Z AUTO 05005KT 2 1/2SM -RA BR FEW004 BKN009 OVC015 08/07 A2998
                 RMK AO2 CIG 007V013 SLP146 P0002 T00830067 =
2018-04-25 08:08 METAR KPSF 251208Z AUTO 06004KT 5SM -RA BR SCT009 OVC012 08/06 A3000 RMK AO2
                 P0001 T00780061 =
2018-04-25 07:54 METAR KPSF 251154Z AUTO 06004KT 5SM -RA BR BKN010 OVC014 08/06 A3001 RMK AO2 CIG
                 007V012 SLP153 P0002 60026 70028 T00780061 10089 20067 58015 =
2018-04-25 06:54 METAR KPSF 251054Z AUTO 00000KT 6SM -RA BR OVC011 07/06 A3004 RMK AO2 CIG
                 008V014 SLP163 P0003 T00720056 =
2018-04-25 05:54 METAR KPSF 250954Z AUTO 02005KT 9SM -RA OVC013 07/05 A3005 RMK AO2 SLP166 P0005
                 T00720050 =
2018-04-25 05:50 METAR KPSF 250950Z AUTO 02005KT 9SM -RA OVC013 07/05 A3005 RMK AO2 P0005 =

Support USWX by starting your Amazon purchase here.